createdAt,value
2018-09-11T00:00:58.435Z,16.57
2018-09-11T00:01:58.459Z,16.53
2018-09-11T00:02:58.468Z,16.56
2018-09-11T00:03:59.012Z,16.46
2018-09-11T00:04:58.436Z,16.46
2018-09-11T00:05:58.430Z,16.39
2018-09-11T00:06:58.466Z,16.41
2018-09-11T00:07:58.504Z,16.39
2018-09-11T00:08:58.476Z,16.43
2018-09-11T00:09:58.442Z,16.39
2018-09-11T00:10:58.447Z,16.43
2018-09-11T00:11:58.456Z,16.49
2018-09-11T00:12:58.443Z,16.39
2018-09-11T00:13:58.428Z,16.57
2018-09-11T00:14:58.438Z,16.52
2018-09-11T00:15:58.482Z,16.45
2018-09-11T00:16:58.505Z,16.43
2018-09-11T00:17:58.486Z,16.43
2018-09-11T00:18:58.433Z,16.56
2018-09-11T00:19:58.439Z,16.56
2018-09-11T00:20:58.435Z,16.56
2018-09-11T00:21:58.453Z,16.60
2018-09-11T00:22:58.468Z,16.66
2018-09-11T00:23:58.474Z,16.61
2018-09-11T00:24:58.523Z,16.57
2018-09-11T00:25:58.495Z,16.53
2018-09-11T00:26:58.475Z,16.64
2018-09-11T00:27:58.478Z,16.58
2018-09-11T00:28:58.478Z,16.61
2018-09-11T00:29:58.530Z,16.70
2018-09-11T00:30:58.485Z,16.60
2018-09-11T00:31:58.515Z,16.61
2018-09-11T00:32:58.604Z,16.58
2018-09-11T00:33:58.451Z,16.60
2018-09-11T00:34:58.491Z,16.61
2018-09-11T00:35:58.469Z,16.60
2018-09-11T00:36:58.527Z,16.57
2018-09-11T00:37:58.531Z,16.56
2018-09-11T00:38:58.553Z,16.63
2018-09-11T00:39:58.472Z,16.61
2018-09-11T00:40:58.491Z,16.60
2018-09-11T00:41:58.484Z,16.61
2018-09-11T00:42:58.547Z,16.52
2018-09-11T00:43:58.513Z,16.66
2018-09-11T00:44:58.504Z,16.68
2018-09-11T00:45:58.504Z,16.61
2018-09-11T00:46:58.513Z,16.71
2018-09-11T00:47:58.549Z,16.71
2018-09-11T00:48:58.522Z,16.66
2018-09-11T00:49:58.535Z,16.61
2018-09-11T00:50:58.547Z,16.64
2018-09-11T00:51:58.625Z,16.57
2018-09-11T00:52:58.542Z,16.73
2018-09-11T00:53:58.511Z,16.61
2018-09-11T00:54:58.524Z,16.60
2018-09-11T00:55:58.530Z,16.60
2018-09-11T00:56:58.604Z,16.60
2018-09-11T00:57:58.517Z,16.53
2018-09-11T00:58:58.520Z,16.53
2018-09-11T00:59:58.532Z,16.61
2018-09-11T01:00:58.544Z,16.58
2018-09-11T01:01:58.539Z,16.53
2018-09-11T01:02:58.628Z,16.58
2018-09-11T01:03:58.610Z,16.57
2018-09-11T01:04:58.577Z,16.58
2018-09-11T01:05:58.542Z,16.57
2018-09-11T01:06:58.580Z,16.57
2018-09-11T01:07:58.559Z,16.53
2018-09-11T01:08:58.564Z,16.58
2018-09-11T01:09:58.567Z,16.49
2018-09-11T01:10:58.561Z,16.58
2018-09-11T01:11:58.575Z,16.56
2018-09-11T01:12:58.591Z,16.57
2018-09-11T01:13:58.590Z,16.58
2018-09-11T01:14:58.589Z,16.56
2018-09-11T01:15:58.605Z,16.58
2018-09-11T01:16:58.577Z,16.71
2018-09-11T01:17:58.616Z,16.61
2018-09-11T01:18:58.620Z,16.64
2018-09-11T01:19:58.594Z,16.63
2018-09-11T01:20:58.579Z,16.58
2018-09-11T01:21:58.590Z,16.61
2018-09-11T01:22:58.642Z,16.64
2018-09-11T01:23:58.575Z,16.67
2018-09-11T01:24:58.601Z,16.67
2018-09-11T01:25:58.631Z,16.61
2018-09-11T01:26:58.597Z,16.64
2018-09-11T01:27:58.598Z,16.61
2018-09-11T01:28:58.609Z,16.63
2018-09-11T01:29:58.610Z,16.61
2018-09-11T01:30:58.613Z,16.71
2018-09-11T01:31:58.637Z,16.60
2018-09-11T01:32:58.711Z,16.60
2018-09-11T01:33:58.618Z,16.67
2018-09-11T01:34:58.638Z,16.63
2018-09-11T01:35:58.624Z,16.58
2018-09-11T01:36:58.655Z,16.52
2018-09-11T01:37:58.599Z,16.57
2018-09-11T01:38:58.614Z,16.53
2018-09-11T01:39:58.603Z,16.42
2018-09-11T01:40:58.618Z,16.42
2018-09-11T01:41:58.747Z,16.35
2018-09-11T01:42:58.613Z,16.31
2018-09-11T01:43:58.676Z,16.39
2018-09-11T01:44:58.613Z,16.39
2018-09-11T01:45:58.633Z,16.30
2018-09-11T01:46:58.622Z,16.34
2018-09-11T01:47:58.655Z,16.31
2018-09-11T01:48:58.642Z,16.38
2018-09-11T01:49:58.646Z,16.27
2018-09-11T01:50:58.728Z,16.34
2018-09-11T01:51:58.649Z,16.28
2018-09-11T01:52:58.672Z,16.27
2018-09-11T01:53:58.659Z,16.39
2018-09-11T01:54:58.699Z,16.33
2018-09-11T01:55:58.672Z,16.31
2018-09-11T01:56:58.643Z,16.38
2018-09-11T01:57:58.634Z,16.35
2018-09-11T01:58:58.685Z,16.33
2018-09-11T01:59:58.746Z,16.31
2018-09-11T02:00:58.744Z,16.25
2018-09-11T02:01:58.666Z,16.34
2018-09-11T02:02:58.651Z,16.34
2018-09-11T02:03:58.655Z,16.33
2018-09-11T02:04:58.738Z,16.30
2018-09-11T02:05:58.650Z,16.35
2018-09-11T02:06:58.679Z,16.30
2018-09-11T02:07:58.681Z,16.30
2018-09-11T02:08:58.680Z,16.31
2018-09-11T02:09:58.678Z,16.33
2018-09-11T02:10:58.678Z,16.28
2018-09-11T02:11:58.677Z,16.31
2018-09-11T02:12:58.685Z,16.28
2018-09-11T02:13:58.683Z,16.30
2018-09-11T02:14:58.695Z,16.28
2018-09-11T02:15:58.672Z,16.30
2018-09-11T02:16:58.709Z,16.33
2018-09-11T02:17:58.836Z,16.15
2018-09-11T02:18:58.678Z,16.28
2018-09-11T02:19:58.676Z,16.24
2018-09-11T02:20:58.681Z,16.20
2018-09-11T02:21:58.687Z,16.27
2018-09-11T02:22:58.726Z,16.15
2018-09-11T02:23:58.687Z,16.20
2018-09-11T02:24:58.688Z,16.21
2018-09-11T02:25:58.698Z,16.15
2018-09-11T02:26:58.720Z,16.20
2018-09-11T02:27:58.699Z,16.23
2018-09-11T02:28:58.701Z,16.20
2018-09-11T02:29:58.739Z,16.25
2018-09-11T02:31:00.698Z,16.17
2018-09-11T02:31:58.719Z,16.24
2018-09-11T02:32:58.709Z,16.28
2018-09-11T02:33:58.729Z,16.21
2018-09-11T02:34:58.735Z,16.23
2018-09-11T02:35:58.745Z,16.17
2018-09-11T02:36:58.743Z,16.14
2018-09-11T02:37:58.722Z,16.17
2018-09-11T02:38:58.754Z,16.21
2018-09-11T02:39:58.725Z,16.24
2018-09-11T02:40:58.733Z,16.33
2018-09-11T02:41:58.727Z,16.23
2018-09-11T02:42:58.756Z,16.28
2018-09-11T02:43:58.742Z,16.27
2018-09-11T02:44:58.741Z,16.28
2018-09-11T02:45:58.732Z,16.34
2018-09-11T02:46:58.764Z,16.34
2018-09-11T02:47:58.727Z,16.33
2018-09-11T02:48:58.802Z,16.28
2018-09-11T02:49:58.763Z,16.33
2018-09-11T02:50:58.757Z,16.31
2018-09-11T02:51:58.759Z,16.28
2018-09-11T02:52:58.791Z,16.38
2018-09-11T02:53:58.744Z,16.25
2018-09-11T02:54:58.780Z,16.34
2018-09-11T02:55:58.792Z,16.31
2018-09-11T02:56:58.758Z,16.31
2018-09-11T02:57:58.751Z,16.38
2018-09-11T02:58:58.759Z,16.33
2018-09-11T02:59:58.759Z,16.33
2018-09-11T03:00:58.757Z,16.35
2018-09-11T03:01:58.853Z,16.39
2018-09-11T03:02:58.785Z,16.41
2018-09-11T03:03:58.770Z,16.35
2018-09-11T03:04:58.796Z,16.48
2018-09-11T03:05:58.794Z,16.38
2018-09-11T03:06:58.806Z,16.39
2018-09-11T03:07:58.792Z,16.38
2018-09-11T03:08:58.820Z,16.28
2018-09-11T03:09:58.809Z,16.31
2018-09-11T03:10:58.801Z,16.25
2018-09-11T03:11:58.786Z,16.31
2018-09-11T03:12:58.780Z,16.25
2018-09-11T03:13:58.800Z,16.31
2018-09-11T03:14:58.867Z,16.25
2018-09-11T03:15:58.791Z,16.21
2018-09-11T03:16:58.803Z,16.20
2018-09-11T03:17:58.948Z,16.20
2018-09-11T03:18:58.930Z,16.11
2018-09-11T03:19:58.847Z,16.07
2018-09-11T03:20:58.809Z,16.11
2018-09-11T03:21:58.916Z,16.04
2018-09-11T03:22:58.834Z,16.09
2018-09-11T03:23:58.799Z,16.01
2018-09-11T03:24:58.829Z,16.04
2018-09-11T03:25:58.825Z,16.04
2018-09-11T03:26:58.874Z,16.05
2018-09-11T03:27:58.844Z,16.07
2018-09-11T03:28:58.828Z,15.97
2018-09-11T03:29:59.028Z,16.05
2018-09-11T03:30:58.851Z,15.94
2018-09-11T03:31:58.851Z,16.00
2018-09-11T03:32:58.836Z,15.94
2018-09-11T03:33:58.826Z,15.89
2018-09-11T03:34:58.824Z,15.90
2018-09-11T03:35:58.868Z,15.86
2018-09-11T03:36:58.887Z,15.87
2018-09-11T03:37:58.833Z,15.90
2018-09-11T03:38:58.855Z,15.86
2018-09-11T03:39:58.846Z,15.87
2018-09-11T03:40:58.836Z,15.74
2018-09-11T03:41:58.845Z,15.75
2018-09-11T03:42:58.857Z,15.72
2018-09-11T03:43:58.935Z,15.74
2018-09-11T03:44:58.860Z,15.74
2018-09-11T03:45:58.879Z,15.80
2018-09-11T03:46:58.851Z,15.72
2018-09-11T03:47:58.880Z,15.80
2018-09-11T03:48:58.855Z,15.72
2018-09-11T03:49:58.885Z,15.86
2018-09-11T03:50:58.893Z,15.84
2018-09-11T03:51:58.890Z,15.80
2018-09-11T03:52:58.892Z,15.80
2018-09-11T03:53:58.909Z,15.86
2018-09-11T03:54:58.873Z,15.86
2018-09-11T03:55:58.952Z,15.89
2018-09-11T03:56:58.916Z,15.87
2018-09-11T03:57:58.867Z,15.89
2018-09-11T03:58:58.881Z,15.90
2018-09-11T03:59:58.883Z,15.96
2018-09-11T04:00:58.884Z,15.96
2018-09-11T04:01:58.893Z,16.01
2018-09-11T04:02:58.885Z,16.02
2018-09-11T04:03:58.913Z,16.00
2018-09-11T04:04:58.939Z,16.08
2018-09-11T04:05:58.908Z,16.05
2018-09-11T04:06:58.884Z,16.09
2018-09-11T04:07:58.899Z,16.04
2018-09-11T04:08:58.922Z,16.04
2018-09-11T04:09:58.917Z,16.05
2018-09-11T04:10:58.908Z,16.08
2018-09-11T04:11:58.929Z,16.04
2018-09-11T04:12:58.953Z,16.11
2018-09-11T04:13:58.914Z,16.07
2018-09-11T04:14:58.933Z,16.11
2018-09-11T04:15:58.936Z,16.11
2018-09-11T04:16:58.989Z,16.15
2018-09-11T04:17:58.943Z,16.09
2018-09-11T04:18:58.945Z,16.07
2018-09-11T04:19:58.915Z,16.09
2018-09-11T04:20:58.931Z,16.09
2018-09-11T04:21:58.944Z,16.08
2018-09-11T04:22:58.980Z,16.07
2018-09-11T04:23:58.946Z,15.96
2018-09-11T04:24:58.980Z,15.97
2018-09-11T04:25:58.987Z,15.90
2018-09-11T04:26:59.013Z,15.87
2018-09-11T04:27:58.970Z,15.83
2018-09-11T04:28:58.963Z,15.84
2018-09-11T04:29:58.952Z,15.87
2018-09-11T04:30:58.996Z,15.86
2018-09-11T04:31:58.971Z,15.86
2018-09-11T04:32:58.976Z,15.87
2018-09-11T04:33:59.006Z,15.78
2018-09-11T04:34:58.994Z,15.78
2018-09-11T04:35:58.996Z,15.74
2018-09-11T04:36:59.603Z,15.84
2018-09-11T04:37:59.006Z,15.74
2018-09-11T04:38:58.957Z,15.76
2018-09-11T04:39:59.045Z,15.78
2018-09-11T04:40:58.965Z,15.78
2018-09-11T04:41:59.686Z,15.78
2018-09-11T04:42:59.035Z,15.86
2018-09-11T04:43:58.993Z,15.90
2018-09-11T04:44:58.987Z,15.80
2018-09-11T04:45:58.992Z,15.78
2018-09-11T04:46:59.007Z,15.80
2018-09-11T04:47:58.969Z,15.76
2018-09-11T04:48:58.977Z,15.86
2018-09-11T04:49:59.616Z,15.84
2018-09-11T04:50:59.022Z,15.92
2018-09-11T04:51:58.994Z,15.84
2018-09-11T04:52:59.025Z,15.83
2018-09-11T04:53:59.046Z,15.86
2018-09-11T04:54:58.976Z,15.86
2018-09-11T04:55:59.018Z,15.87
2018-09-11T04:56:59.013Z,15.84
2018-09-11T04:57:59.010Z,15.90
2018-09-11T04:58:58.984Z,15.93
2018-09-11T04:59:59.009Z,15.93
2018-09-11T05:00:59.022Z,15.90
2018-09-11T05:01:59.028Z,15.97
2018-09-11T05:02:59.009Z,15.94
2018-09-11T05:03:59.039Z,16.08
2018-09-11T05:04:59.046Z,16.04
2018-09-11T05:05:59.060Z,16.07
2018-09-11T05:06:59.034Z,16.05
2018-09-11T05:07:59.197Z,16.08
2018-09-11T05:08:59.080Z,16.12
2018-09-11T05:09:59.615Z,16.20
2018-09-11T05:10:59.060Z,16.24
2018-09-11T05:11:59.067Z,16.15
2018-09-11T05:12:59.049Z,16.15
2018-09-11T05:13:59.035Z,16.15
2018-09-11T05:14:59.091Z,16.33
2018-09-11T05:15:59.085Z,16.30
2018-09-11T05:16:59.031Z,16.30
2018-09-11T05:17:59.035Z,16.33
2018-09-11T05:18:59.045Z,16.31
2018-09-11T05:19:59.036Z,16.31
2018-09-11T05:20:59.620Z,16.38
2018-09-11T05:21:59.058Z,16.46
2018-09-11T05:22:59.036Z,16.39
2018-09-11T05:23:59.065Z,16.42
2018-09-11T05:24:59.063Z,16.49
2018-09-11T05:25:59.114Z,16.46
2018-09-11T05:26:59.052Z,16.48
2018-09-11T05:27:59.097Z,16.48
2018-09-11T05:28:59.061Z,16.53
2018-09-11T05:29:59.088Z,16.60
2018-09-11T05:30:59.174Z,16.66
2018-09-11T05:31:59.069Z,16.64
2018-09-11T05:32:59.070Z,16.66
2018-09-11T05:33:59.095Z,16.61
2018-09-11T05:34:59.052Z,16.73
2018-09-11T05:35:59.058Z,16.82
2018-09-11T05:36:59.082Z,17.00
2018-09-11T05:37:59.065Z,16.97
2018-09-11T05:38:59.092Z,17.03
2018-09-11T05:39:59.072Z,17.16
2018-09-11T05:40:59.097Z,17.15
2018-09-11T05:41:59.077Z,17.16
2018-09-11T05:42:59.112Z,17.28
2018-09-11T05:43:59.631Z,17.30
2018-09-11T05:44:59.094Z,17.37
2018-09-11T05:45:59.092Z,17.41
2018-09-11T05:46:59.126Z,17.37
2018-09-11T05:47:59.099Z,17.44
2018-09-11T05:48:59.094Z,17.41
2018-09-11T05:49:59.108Z,17.48
2018-09-11T05:50:59.100Z,17.63
2018-09-11T05:51:59.100Z,17.92
2018-09-11T05:52:59.092Z,18.50
2018-09-11T05:53:59.158Z,19.23
2018-09-11T05:54:59.098Z,19.88
2018-09-11T05:55:59.181Z,20.39
2018-09-11T05:56:59.168Z,20.35
2018-09-11T05:57:59.127Z,20.42
2018-09-11T05:58:59.112Z,20.48
2018-09-11T05:59:59.162Z,20.31
2018-09-11T06:00:59.134Z,19.91
2018-09-11T06:01:59.201Z,19.81
2018-09-11T06:02:59.124Z,20.02
2018-09-11T06:03:59.120Z,20.95
2018-09-11T06:04:59.163Z,21.10
2018-09-11T06:05:59.127Z,20.66
2018-09-11T06:06:59.119Z,20.05
2018-09-11T06:07:59.131Z,19.65
2018-09-11T06:08:59.138Z,19.74
2018-09-11T06:09:59.141Z,20.36
2018-09-11T06:10:59.150Z,21.14
2018-09-11T06:11:59.147Z,22.09
2018-09-11T06:12:59.151Z,21.35
2018-09-11T06:13:59.150Z,20.74
2018-09-11T06:14:59.141Z,20.38
2018-09-11T06:15:59.165Z,20.41
2018-09-11T06:16:59.148Z,20.31
2018-09-11T06:17:59.167Z,21.19
2018-09-11T06:18:59.163Z,22.14
2018-09-11T06:19:59.167Z,22.21
2018-09-11T06:20:59.152Z,22.73
2018-09-11T06:21:59.172Z,23.39
2018-09-11T06:22:59.176Z,23.79
2018-09-11T06:23:59.161Z,22.62
2018-09-11T06:24:59.166Z,21.50
2018-09-11T06:25:59.175Z,20.31
2018-09-11T06:26:59.330Z,19.73
2018-09-11T06:27:59.358Z,19.41
2018-09-11T06:28:59.230Z,19.55
2018-09-11T06:29:59.205Z,19.48
2018-09-11T06:30:59.295Z,19.29
2018-09-11T06:31:59.215Z,19.29
2018-09-11T06:32:59.221Z,19.28
2018-09-11T06:33:59.216Z,19.26
2018-09-11T06:34:59.237Z,19.47
2018-09-11T06:35:59.216Z,19.71
2018-09-11T06:36:59.210Z,19.63
2018-09-11T06:37:59.248Z,20.23
2018-09-11T06:38:59.223Z,21.14
2018-09-11T06:39:59.248Z,21.42
2018-09-11T06:40:59.271Z,22.18
2018-09-11T06:41:59.207Z,22.62
2018-09-11T06:42:59.242Z,22.30
2018-09-11T06:43:59.304Z,21.47
2018-09-11T06:44:59.229Z,21.10
2018-09-11T06:45:59.215Z,21.06
2018-09-11T06:46:59.272Z,21.37
2018-09-11T06:47:59.319Z,21.49
2018-09-11T06:48:59.273Z,21.28
2018-09-11T06:49:59.362Z,21.25
2018-09-11T06:50:59.262Z,21.21
2018-09-11T06:51:59.273Z,20.98
2018-09-11T06:52:59.288Z,20.66
2018-09-11T06:53:59.304Z,20.73
2018-09-11T06:54:59.282Z,20.70
2018-09-11T06:55:59.317Z,21.17
2018-09-11T06:56:59.315Z,21.92
2018-09-11T06:57:59.266Z,22.37
2018-09-11T06:58:59.327Z,22.88
2018-09-11T06:59:59.315Z,22.70
2018-09-11T07:00:59.273Z,22.72
2018-09-11T07:01:59.383Z,23.13
2018-09-11T07:02:59.356Z,23.38
2018-09-11T07:03:59.286Z,24.60
2018-09-11T07:04:59.381Z,25.30
2018-09-11T07:05:59.449Z,24.65
2018-09-11T07:06:59.397Z,24.24
2018-09-11T07:07:59.311Z,24.60
2018-09-11T07:08:59.355Z,25.23
2018-09-11T07:09:59.339Z,25.97
2018-09-11T07:10:59.326Z,26.09
2018-09-11T07:11:59.362Z,25.94
2018-09-11T07:12:59.414Z,25.90
2018-09-11T07:13:59.387Z,24.77
2018-09-11T07:15:00.441Z,23.31
2018-09-11T07:15:59.474Z,23.20
2018-09-11T07:16:59.415Z,23.02
2018-09-11T07:17:59.476Z,24.32
2018-09-11T07:18:59.444Z,24.64
2018-09-11T07:19:59.607Z,24.77
2018-09-11T07:20:59.522Z,25.43
2018-09-11T07:21:59.470Z,25.97
2018-09-11T07:22:59.486Z,24.87
2018-09-11T07:23:59.450Z,23.57
2018-09-11T07:24:59.508Z,24.47
2018-09-11T07:25:59.455Z,25.25
2018-09-11T07:26:59.439Z,25.23
2018-09-11T07:27:59.423Z,24.28
2018-09-11T07:29:00.283Z,23.95
2018-09-11T07:30:00.836Z,23.22
2018-09-11T07:30:59.458Z,23.04
2018-09-11T07:31:59.439Z,22.58
2018-09-11T07:32:59.451Z,21.96
2018-09-11T07:33:59.440Z,22.05
2018-09-11T07:34:59.465Z,22.62
2018-09-11T07:35:59.463Z,23.63
2018-09-11T07:36:59.508Z,22.61
2018-09-11T07:37:59.519Z,23.32
2018-09-11T07:38:59.557Z,23.79
2018-09-11T07:39:59.525Z,23.39
2018-09-11T07:41:00.752Z,23.60
2018-09-11T07:41:59.539Z,23.07
2018-09-11T07:42:59.553Z,22.98
2018-09-11T07:43:59.541Z,24.32
2018-09-11T07:44:59.493Z,24.05
2018-09-11T07:45:59.555Z,23.84
2018-09-11T07:46:59.522Z,23.87
2018-09-11T07:47:59.525Z,24.02
2018-09-11T07:48:59.540Z,23.47
2018-09-11T07:49:59.579Z,23.90
2018-09-11T07:50:59.543Z,23.60
2018-09-11T07:51:59.584Z,23.35
2018-09-11T07:53:00.280Z,23.33
2018-09-11T07:53:59.608Z,22.86
2018-09-11T07:54:59.597Z,23.23
2018-09-11T07:55:59.608Z,22.61
2018-09-11T07:56:59.629Z,22.55
2018-09-11T07:57:59.632Z,22.31
2018-09-11T07:58:59.640Z,22.57
2018-09-11T07:59:59.590Z,22.33
2018-09-11T08:00:59.618Z,22.07
2018-09-11T08:01:59.605Z,22.15
2018-09-11T08:02:59.714Z,22.52
2018-09-11T08:03:59.614Z,22.21
2018-09-11T08:04:59.682Z,21.96
2018-09-11T08:05:59.720Z,22.07
2018-09-11T08:06:59.643Z,22.22
2018-09-11T08:07:59.647Z,22.15
2018-09-11T08:08:59.665Z,21.96
2018-09-11T08:09:59.684Z,22.00
2018-09-11T08:10:59.683Z,22.07
2018-09-11T08:11:59.697Z,22.10
2018-09-11T08:12:59.680Z,22.06
2018-09-11T08:13:59.687Z,22.07
2018-09-11T08:14:59.725Z,22.02
2018-09-11T08:15:59.719Z,21.96
2018-09-11T08:16:59.789Z,21.71
2018-09-11T08:17:59.719Z,22.21
2018-09-11T08:18:59.729Z,21.94
2018-09-11T08:20:00.047Z,21.64
2018-09-11T08:21:00.707Z,21.59
2018-09-11T08:21:59.712Z,21.77
2018-09-11T08:22:59.727Z,22.15
2018-09-11T08:23:59.733Z,22.10
2018-09-11T08:24:59.745Z,22.07
2018-09-11T08:25:59.773Z,22.09
2018-09-11T08:26:59.710Z,22.10
2018-09-11T08:27:59.783Z,22.24
2018-09-11T08:28:59.747Z,22.09
2018-09-11T08:29:59.911Z,21.96
2018-09-11T08:30:59.760Z,21.82
2018-09-11T08:31:59.866Z,21.80
2018-09-11T08:32:59.753Z,21.77
2018-09-11T08:34:00.228Z,21.67
2018-09-11T08:34:59.758Z,21.56
2018-09-11T08:35:59.777Z,21.37
2018-09-11T08:36:59.800Z,21.31
2018-09-11T08:37:59.762Z,21.29
2018-09-11T08:38:59.814Z,21.34
2018-09-11T08:39:59.778Z,21.88
2018-09-11T08:40:59.866Z,21.92
2018-09-11T08:41:59.776Z,21.90
2018-09-11T08:42:59.796Z,21.88
2018-09-11T08:43:59.796Z,22.07
2018-09-11T08:44:59.805Z,22.21
2018-09-11T08:45:59.799Z,22.10
2018-09-11T08:46:59.891Z,22.36
2018-09-11T08:47:59.822Z,22.57
2018-09-11T08:48:59.878Z,22.68
2018-09-11T08:49:59.834Z,22.83
2018-09-11T08:50:59.827Z,22.75
2018-09-11T08:51:59.903Z,22.58
2018-09-11T08:52:59.869Z,22.64
2018-09-11T08:53:59.861Z,23.15
2018-09-11T08:54:59.856Z,22.76
2018-09-11T08:55:59.975Z,23.01
2018-09-11T08:56:59.868Z,23.66
2018-09-11T08:57:59.920Z,23.53
2018-09-11T08:58:59.906Z,23.78
2018-09-11T08:59:59.940Z,23.75
2018-09-11T09:00:59.908Z,23.57
2018-09-11T09:01:59.912Z,23.84
2018-09-11T09:02:59.953Z,23.07
2018-09-11T09:03:59.923Z,23.33
2018-09-11T09:05:00.055Z,23.47
2018-09-11T09:05:59.944Z,23.22
2018-09-11T09:07:00.563Z,23.65
2018-09-11T09:07:59.926Z,23.39
2018-09-11T09:08:59.949Z,23.36
2018-09-11T09:09:59.956Z,24.67
2018-09-11T09:10:59.963Z,25.50
2018-09-11T09:11:59.944Z,25.21
2018-09-11T09:13:00.817Z,25.30
2018-09-11T09:13:59.971Z,25.08
2018-09-11T09:14:59.989Z,25.61
2018-09-11T09:15:59.952Z,25.28
2018-09-11T09:17:00.773Z,25.88
2018-09-11T09:18:00.819Z,25.97
2018-09-11T09:18:59.992Z,25.25
2018-09-11T09:19:59.993Z,25.30
2018-09-11T09:21:00.192Z,25.60
2018-09-11T09:22:00.028Z,24.62
2018-09-11T09:23:00.043Z,24.67
2018-09-11T09:24:00.024Z,24.78
2018-09-11T09:25:00.030Z,24.50
2018-09-11T09:26:00.068Z,24.27
2018-09-11T09:27:00.080Z,24.00
2018-09-11T09:28:00.063Z,24.03
2018-09-11T09:29:00.043Z,24.09
2018-09-11T09:30:00.065Z,23.69
2018-09-11T09:31:00.176Z,23.66
2018-09-11T09:32:00.116Z,24.50
2018-09-11T09:33:00.144Z,24.81
2018-09-11T09:34:00.083Z,25.61
2018-09-11T09:36:00.978Z,25.92
2018-09-11T09:37:00.387Z,25.95
2018-09-11T09:38:00.149Z,25.85
2018-09-11T09:39:02.931Z,26.52
2018-09-11T09:40:00.140Z,26.58
2018-09-11T09:41:00.200Z,26.35
2018-09-11T09:42:00.199Z,26.91
2018-09-11T09:43:00.220Z,27.34
2018-09-11T09:44:00.271Z,26.88
2018-09-11T09:45:00.269Z,27.25
2018-09-11T09:46:00.388Z,26.43
2018-09-11T09:47:00.202Z,26.33
2018-09-11T09:48:00.272Z,26.76
2018-09-11T09:49:00.229Z,26.67
2018-09-11T09:50:00.243Z,27.03
2018-09-11T09:51:00.342Z,26.23
2018-09-11T09:52:00.227Z,26.55
2018-09-11T09:53:00.249Z,26.81
2018-09-11T09:54:00.309Z,27.49
2018-09-11T09:55:00.295Z,27.02
2018-09-11T09:56:00.293Z,25.94
2018-09-11T09:57:00.325Z,25.91
2018-09-11T09:58:00.346Z,26.43
2018-09-11T09:59:00.290Z,26.57
2018-09-11T10:00:00.328Z,26.52
2018-09-11T10:01:00.330Z,26.92
2018-09-11T10:02:00.341Z,26.18
2018-09-11T10:03:00.486Z,25.46
2018-09-11T10:04:00.373Z,26.10
2018-09-11T10:06:01.301Z,25.92
2018-09-11T10:07:00.419Z,26.17
2018-09-11T10:08:00.464Z,26.66
2018-09-11T10:09:00.410Z,26.51
2018-09-11T10:10:00.470Z,27.12
2018-09-11T10:11:00.404Z,27.36
2018-09-11T10:12:00.539Z,27.44
2018-09-11T10:13:00.545Z,27.37
2018-09-11T10:14:00.442Z,27.70
2018-09-11T10:15:00.448Z,27.90
2018-09-11T10:16:00.743Z,28.24
2018-09-11T10:17:00.538Z,28.73
2018-09-11T10:18:00.500Z,29.26
2018-09-11T10:19:01.006Z,28.37
2018-09-11T10:20:00.502Z,27.54
2018-09-11T10:21:00.672Z,27.63
2018-09-11T10:22:00.537Z,27.59
2018-09-11T10:23:01.340Z,27.43
2018-09-11T10:24:01.313Z,27.74
2018-09-11T10:25:00.583Z,27.50
2018-09-11T10:26:00.735Z,27.43
2018-09-11T10:27:00.581Z,27.55
2018-09-11T10:28:00.635Z,27.25
2018-09-11T10:29:00.699Z,27.40
2018-09-11T10:30:00.642Z,27.43
2018-09-11T10:31:00.650Z,27.25
2018-09-11T10:32:00.656Z,27.59
2018-09-11T10:33:00.681Z,27.72
2018-09-11T10:34:00.680Z,27.54
2018-09-11T10:35:00.682Z,27.85
2018-09-11T10:36:01.317Z,27.65
2018-09-11T10:37:00.707Z,27.75
2018-09-11T10:38:00.896Z,27.25
2018-09-11T10:39:00.746Z,27.41
2018-09-11T10:40:00.748Z,27.70
2018-09-11T10:41:00.753Z,27.70
2018-09-11T10:42:00.835Z,27.90
2018-09-11T10:43:00.772Z,28.02
2018-09-11T10:44:00.815Z,27.84
2018-09-11T10:45:00.877Z,27.60
2018-09-11T10:46:00.852Z,28.14
2018-09-11T10:47:00.854Z,28.36
2018-09-11T10:48:00.852Z,28.37
2018-09-11T10:49:00.868Z,28.24
2018-09-11T10:50:00.864Z,28.27
2018-09-11T10:51:01.832Z,28.18
2018-09-11T10:52:00.955Z,28.17
2018-09-11T10:56:07.132Z,28.31
2018-09-11T10:57:07.117Z,28.33
2018-09-11T10:58:07.191Z,28.27
2018-09-11T10:59:07.203Z,28.17
2018-09-11T11:00:07.186Z,28.37
2018-09-11T11:01:07.208Z,28.03
2018-09-11T11:02:07.203Z,28.07
2018-09-11T11:03:07.208Z,27.78
2018-09-11T11:04:07.216Z,27.72
2018-09-11T11:05:07.250Z,28.11
2018-09-11T11:06:07.238Z,28.29
2018-09-11T11:07:07.293Z,28.11
2018-09-11T11:08:07.390Z,28.02
2018-09-11T11:09:07.312Z,28.15
2018-09-11T11:10:07.435Z,27.47
2018-09-11T11:11:07.337Z,27.43
2018-09-11T11:12:07.318Z,27.66
2018-09-11T11:13:07.387Z,27.85
2018-09-11T11:14:07.396Z,28.48
2018-09-11T11:35:09.450Z,26.40
2018-09-11T11:36:09.317Z,26.50
2018-09-11T11:38:03.593Z,26.40
2018-09-11T11:43:39.866Z,26.69
2018-09-11T11:44:39.825Z,26.80
2018-09-11T11:45:40.629Z,26.63
2018-09-11T11:46:39.858Z,26.48
2018-09-11T11:47:39.844Z,26.43
2018-09-11T11:48:39.866Z,26.44
2018-09-11T11:49:39.892Z,26.45
2018-09-11T11:50:39.921Z,26.70
2018-09-11T11:51:39.929Z,26.75
2018-09-11T11:52:39.890Z,26.58
2018-09-11T11:53:39.962Z,26.85
2018-09-11T11:54:39.942Z,27.02
2018-09-11T11:55:39.935Z,26.77
2018-09-11T11:56:40.013Z,26.70
2018-09-11T11:57:39.956Z,26.60
2018-09-11T11:58:40.039Z,26.55
2018-09-11T11:59:40.035Z,26.51
2018-09-11T12:00:39.944Z,26.75
2018-09-11T12:01:40.044Z,26.77
2018-09-11T12:02:40.072Z,26.63
2018-09-11T12:03:40.135Z,26.52
2018-09-11T12:04:40.639Z,26.50
2018-09-11T12:05:39.995Z,26.54
2018-09-11T12:06:40.024Z,26.63
2018-09-11T12:07:44.576Z,26.80
2018-09-11T12:08:40.020Z,26.69
2018-09-11T12:09:40.660Z,26.50
2018-09-11T12:10:46.725Z,26.45
2018-09-11T12:11:40.159Z,26.43
2018-09-11T12:12:40.220Z,26.43
2018-09-11T12:13:40.649Z,26.58
2018-09-11T12:14:40.261Z,26.55
2018-09-11T12:15:40.259Z,26.67
2018-09-11T12:16:40.119Z,26.60
2018-09-11T12:17:40.140Z,26.58
2018-09-11T12:18:40.070Z,26.57
2018-09-11T12:19:40.299Z,26.52
2018-09-11T12:20:40.094Z,26.62
2018-09-11T12:21:40.140Z,26.70
2018-09-11T12:22:40.085Z,26.85
2018-09-11T12:23:40.127Z,26.76
2018-09-11T12:24:40.193Z,26.72
2018-09-11T12:25:40.174Z,26.51
2018-09-11T12:29:12.696Z,26.29
2018-09-11T12:30:12.518Z,26.32
2018-09-11T12:31:12.943Z,26.25
2018-09-11T12:32:12.606Z,26.43
2018-09-11T12:33:12.486Z,26.60
2018-09-11T12:34:12.548Z,26.63
2018-09-11T12:35:12.615Z,26.57
2018-09-11T12:36:12.602Z,26.60
2018-09-11T12:37:13.211Z,26.62
2018-09-11T12:39:47.186Z,26.62
2018-09-11T12:40:47.226Z,26.69
2018-09-11T12:41:46.163Z,26.55
2018-09-11T12:42:46.142Z,26.58
2018-09-11T12:43:46.185Z,26.29
2018-09-11T12:44:48.267Z,26.43
2018-09-11T12:45:46.164Z,26.39
2018-09-11T12:46:46.330Z,26.45
2018-09-11T12:47:46.908Z,26.44
2018-09-11T12:48:47.340Z,26.51
2018-09-11T12:49:47.254Z,26.58
2018-09-11T12:50:46.193Z,26.44
2018-09-11T12:51:46.200Z,26.50
2018-09-11T12:52:46.201Z,26.48
2018-09-11T12:56:18.469Z,26.43
2018-09-11T12:57:18.444Z,26.35
2018-09-11T12:58:18.445Z,26.26
2018-09-11T12:59:18.443Z,26.29
2018-09-11T13:00:18.431Z,26.39
2018-09-11T13:01:18.431Z,26.44
2018-09-11T13:02:18.553Z,26.44
2018-09-11T13:03:18.466Z,26.43
2018-09-11T13:04:18.474Z,26.29
2018-09-11T13:05:18.495Z,26.15
2018-09-11T13:06:18.513Z,26.15
2018-09-11T13:07:18.477Z,26.13
2018-09-11T13:08:18.609Z,26.18
2018-09-11T13:09:18.633Z,26.21
2018-09-11T13:10:18.503Z,26.18
2018-09-11T13:11:18.486Z,26.12
2018-09-11T13:12:18.491Z,26.20
2018-09-11T13:13:18.504Z,26.02
2018-09-11T13:14:18.523Z,25.98
2018-09-11T13:15:18.532Z,25.99
2018-09-11T13:16:18.509Z,26.09
2018-09-11T13:17:18.532Z,26.15
2018-09-11T13:18:18.650Z,26.13
2018-09-11T13:19:18.533Z,26.32
2018-09-11T13:20:18.541Z,26.26
2018-09-11T13:21:18.562Z,26.23
2018-09-11T13:22:18.582Z,26.21
2018-09-11T13:23:18.636Z,25.79
2018-09-11T13:24:18.581Z,25.79
2018-09-11T13:25:18.580Z,25.95
2018-09-11T13:26:18.569Z,25.95
2018-09-11T13:27:18.585Z,26.06
2018-09-11T13:28:18.609Z,26.20
2018-09-11T13:29:18.618Z,26.21
2018-09-11T13:30:18.633Z,26.18